Edward Brusco — WDC3064 — position and weather

sailwx.info

Track history (hours):
 
Tides and Currents Weather Stations Pressure Air Temp Water Temp Dewpoint Dewpoint Depression Visibility Wind Speed Wind Dir Waves Ship Positions

Edward Brusco

Owner: Brusco Tug & Barge, Inc., Longview, WA. More information available from US FCC via Universal Licensing System and Coast Guard Vessel Documentation Center.

Last reported at 2018-Mar-21 03:01 UTC. Time now 2018-Apr-23 03:47 UTC.
Position N 46°12' W 123°23'.
Warning: this ship's position is 33 days out of date.

Length 37 m; draft 4.1 m.

Type: Tug. MMSI: 367002170.

Date/timePositionNaut miles runAvg speedWind from/ knotsBaromVisibWave heightAir tempDewpointWater temp
2018-Mar-21 03:01N 46°12' W 123°23'0 0.4
2018-Mar-21 03:01N 46°12' W 123°23'2 4.2
2018-Mar-21 02:31N 46°10' W 123°25'713.0
2018-Mar-21 02:00N 46°09' W 123°16'713.4
2018-Mar-21 01:30N 46°11' W 123°07'713.9
2018-Mar-21 01:00N 46°07' W 122°59'1 2.2
2018-Mar-21 00:30N 46°06' W 122°58'1 2.4
2018-Mar-21 00:00N 46°07' W 122°59'4 7.5
2018-Mar-20 23:30N 46°09' W 123°03'4 7.6
2018-Mar-20 23:00N 46°11' W 123°08'4 7.3
2018-Mar-20 22:30N 46°10' W 123°13'4 7.4
2018-Mar-20 22:01N 46°09' W 123°18'4 7.4
2018-Mar-20 21:30N 46°09' W 123°23'3 6.9
2018-Mar-20 21:00N 46°12' W 123°26'4 7.0
2018-Mar-20 20:30N 46°15' W 123°27'3 6.5
2018-Mar-20 20:00N 46°16' W 123°31'4 7.4
2018-Mar-20 19:30N 46°15' W 123°37'4 7.2
2018-Mar-20 19:00N 46°15' W 123°42'4 7.4
2018-Mar-20 18:30N 46°13' W 123°47'6 7.1
2018-Mar-20 17:40N 46°12' W 123°55'1 6.9
2018-Mar-20 17:30N 46°12' W 123°56'3 6.2
2018-Mar-20 17:00N 46°14' W 123°59'2 4.0
2018-Mar-20 16:31N 46°15' W 124°02'2 4.7
2018-Mar-20 16:00N 46°15' W 124°05'3 5.7
2018-Mar-20 15:30N 46°13' W 124°08'3 6.8
2018-Mar-20 15:01N 46°13' W 124°13'4 7.9
2018-Mar-20 14:30N 46°15' W 124°18'4 8.3
2018-Mar-20 14:00N 46°19' W 124°20'7 8.2
2018-Mar-20 13:08N 46°26' W 124°21'1 8.3
2018-Mar-20 13:00N 46°27' W 124°22'4 8.1
2018-Mar-20 12:30N 46°31' W 124°23'4 8.2
2018-Mar-20 12:00N 46°35' W 124°24'4 8.1
2018-Mar-20 11:30N 46°39' W 124°25'4 8.1
2018-Mar-20 11:00N 46°43' W 124°26'4 7.7
2018-Mar-20 10:31N 46°46' W 124°24'4 8.3
2018-Mar-20 10:00N 46°49' W 124°20'4 8.6
2018-Mar-20 09:30N 46°52' W 124°15'4 8.1
2018-Mar-20 09:00N 46°55' W 124°11'2 0.1
2018-Mar-19 00:21N 46°55' W 124°08'2 6.2
2018-Mar-19 00:00N 46°55' W 124°11'4 8.9
2018-Mar-18 23:30N 46°52' W 124°15'5 9.9
2018-Mar-18 23:00N 46°48' W 124°21'5 9.8
2018-Mar-18 22:31N 46°45' W 124°26'510.0
2018-Mar-18 22:00N 46°40' W 124°25'510.4
2018-Mar-18 21:30N 46°35' W 124°24'510.4
2018-Mar-18 21:00N 46°30' W 124°23'510.6
2018-Mar-18 20:29N 46°25' W 124°21'510.4
2018-Mar-18 20:00N 46°20' W 124°20'510.2
2018-Mar-18 19:30N 46°15' W 124°18'5 8.0
2018-Mar-18 18:57N 46°13' W 124°12'3 7.6
2018-Mar-18 18:30N 46°14' W 124°07'3 6.3
2018-Mar-18 18:00N 46°15' W 124°04'4 7.1
2018-Mar-18 17:30N 46°14' W 123°59'5 9.9
2018-Mar-18 17:00N 46°11' W 123°53'510.9
2018-Mar-18 16:30N 46°13' W 123°45'611.8
2018-Mar-18 16:00N 46°16' W 123°38'612.1
2018-Mar-18 15:30N 46°16' W 123°29'611.2
2018-Mar-18 15:01N 46°11' W 123°26'611.3
2018-Mar-18 14:30N 46°09' W 123°19'611.9
2018-Mar-18 14:00N 46°11' W 123°11'510.8
2018-Mar-18 13:30N 46°09' W 123°03'510.9
2018-Mar-18 13:00N 46°06' W 122°57'0 1.0
2018-Mar-18 12:31N 46°06' W 122°57'1 1.8
2018-Mar-18 12:01N 46°06' W 122°58'3 7.0
2018-Mar-18 11:30N 46°08' W 123°02'4 7.6
2018-Mar-18 11:00N 46°11' W 123°06'4 7.3
2018-Mar-18 10:30N 46°11' W 123°11'4 8.0
2018-Mar-18 10:00N 46°09' W 123°17'4 8.2
2018-Mar-18 09:31N 46°09' W 123°22'4 7.3
2018-Mar-18 09:00N 46°12' W 123°26'2 3.5
2018-Mar-18 08:30N 46°12' W 123°23'0 0.0
2018-Mar-18 06:53N 46°12' W 123°23'0 0.0
2018-Mar-18 06:29N 46°12' W 123°23'0 0.0
2018-Mar-18 05:58N 46°12' W 123°23'0 0.0
2018-Mar-18 05:28N 46°12' W 123°23'0 0.0
2018-Mar-18 04:58N 46°12' W 123°23'0 0.0
2018-Mar-18 04:22N 46°12' W 123°23'0 0.0
2018-Mar-18 03:57N 46°12' W 123°23'0 0.0
2018-Mar-18 03:30N 46°12' W 123°23'0 0.0
2018-Mar-18 03:00N 46°12' W 123°23'0 0.0
2018-Mar-18 02:27N 46°12' W 123°23'0 0.0
2018-Mar-18 01:58N 46°12' W 123°23'0 0.0
2018-Mar-18 01:25N 46°12' W 123°23'0 0.0
2018-Mar-18 00:55N 46°12' W 123°23'0 0.0
2018-Mar-18 00:30N 46°12' W 123°23'0 0.0
2018-Mar-18 00:00N 46°12' W 123°23'0 0.0
2018-Mar-17 23:30N 46°12' W 123°23'0 0.0
2018-Mar-17 22:58N 46°12' W 123°23'0 0.0
2018-Mar-17 22:30N 46°12' W 123°23'0 0.0
2018-Mar-17 21:53N 46°12' W 123°23'0 0.0
2018-Mar-17 21:26N 46°12' W 123°23'0 0.0
2018-Mar-17 20:57N 46°12' W 123°23'0 0.0
2018-Mar-17 20:28N 46°12' W 123°23'0 0.0
2018-Mar-17 19:55N 46°12' W 123°23'0 0.0
2018-Mar-17 19:28N 46°12' W 123°23'0 0.0
2018-Mar-17 18:58N 46°12' W 123°23'0 0.0
2018-Mar-17 18:28N 46°12' W 123°23'0 0.0
2018-Mar-17 17:59N 46°12' W 123°23'0 0.0
2018-Mar-17 17:29N 46°12' W 123°23'0 0.0
2018-Mar-17 16:59N 46°12' W 123°23'0 0.0
2018-Mar-17 16:25N 46°12' W 123°23'0 0.0
2018-Mar-17 15:58N 46°12' W 123°23'0 0.0
2018-Mar-17 15:28N 46°12' W 123°23'0 0.0
2018-Mar-17 15:00N 46°12' W 123°23'0 0.0
2018-Mar-17 14:30N 46°12' W 123°23'0 0.0
2018-Mar-17 14:00N 46°12' W 123°23'0 0.0
2018-Mar-17 13:28N 46°12' W 123°23'0 0.0
2018-Mar-17 12:58N 46°12' W 123°23'0 0.0
2018-Mar-17 12:28N 46°12' W 123°23'0 0.0
2018-Mar-17 12:00N 46°12' W 123°23'0 0.0
2018-Mar-17 11:29N 46°12' W 123°23'0 0.0
2018-Mar-17 10:59N 46°12' W 123°23'0 0.0
2018-Mar-17 10:27N 46°12' W 123°23'0 0.0
2018-Mar-17 10:00N 46°12' W 123°23'0 0.0
2018-Mar-17 09:27N 46°12' W 123°23'0 0.0
2018-Mar-17 09:00N 46°12' W 123°23'0 0.0
2018-Mar-17 08:28N 46°12' W 123°23'0 0.0
2018-Mar-17 07:58N 46°12' W 123°23'0 0.0
2018-Mar-17 07:28N 46°12' W 123°23'0 0.0
2018-Mar-17 06:55N 46°12' W 123°23'0 0.0
2018-Mar-17 06:30N 46°12' W 123°23'0 0.0
2018-Mar-17 06:00N 46°12' W 123°23'0 0.0
2018-Mar-17 05:30N 46°12' W 123°23'0 0.0
2018-Mar-17 04:46N 46°12' W 123°23'0 0.0
2018-Mar-17 04:25N 46°12' W 123°23'0 0.0
2018-Mar-17 03:58N 46°12' W 123°23'0 0.0
2018-Mar-17 03:26N 46°12' W 123°23'0 0.0
2018-Mar-17 03:00N 46°12' W 123°23'0 0.0
2018-Mar-17 02:28N 46°12' W 123°23'0 0.0
2018-Mar-17 01:58N 46°12' W 123°23'0 0.0
2018-Mar-17 01:30N 46°12' W 123°23'0 0.0
2018-Mar-17 01:00N 46°12' W 123°23'0 0.0
2018-Mar-17 00:30N 46°12' W 123°23'0 0.0
2018-Mar-16 23:59N 46°12' W 123°23'0 0.0
2018-Mar-16 23:29N 46°12' W 123°23'0 0.0
2018-Mar-16 23:00N 46°12' W 123°23'0 0.0
2018-Mar-16 22:30N 46°12' W 123°23'0 0.0
2018-Mar-16 22:00N 46°12' W 123°23'0 0.0
2018-Mar-16 21:28N 46°12' W 123°23'0 0.0
2018-Mar-16 20:57N 46°12' W 123°23'0 0.0
2018-Mar-16 20:24N 46°12' W 123°23'0 0.0
2018-Mar-16 20:00N 46°12' W 123°23'0 0.0
2018-Mar-16 19:29N 46°12' W 123°23'0 0.0
2018-Mar-16 18:58N 46°12' W 123°23'0 0.0
2018-Mar-16 18:22N 46°12' W 123°23'0 0.0
2018-Mar-16 17:58N 46°12' W 123°23'0 0.0
2018-Mar-16 17:25N 46°12' W 123°23'0 0.0
2018-Mar-16 16:55N 46°12' W 123°23'0 0.0
2018-Mar-16 16:28N 46°12' W 123°23'0 0.0
2018-Mar-16 15:42N 46°12' W 123°23'0 0.0
2018-Mar-16 15:30N 46°12' W 123°23'0 0.0
2018-Mar-16 15:00N 46°12' W 123°23'0 0.0
2018-Mar-16 14:21N 46°12' W 123°23'0 0.0
2018-Mar-16 14:00N 46°12' W 123°23'0 0.0
2018-Mar-16 13:30N 46°12' W 123°23'0 0.0
2018-Mar-16 13:00N 46°12' W 123°23'0 0.0
2018-Mar-16 12:30N 46°12' W 123°23'0 0.0
2018-Mar-16 12:00N 46°12' W 123°23'0 0.0
2018-Mar-16 11:24N 46°12' W 123°23'0 0.0
2018-Mar-16 11:00N 46°12' W 123°23'0 0.0
2018-Mar-16 10:30N 46°12' W 123°23'0 0.0
2018-Mar-16 09:55N 46°12' W 123°23'0 0.0
2018-Mar-16 09:30N 46°12' W 123°23'0 0.0
2018-Mar-16 09:00N 46°12' W 123°23'0 0.0
2018-Mar-16 08:30N 46°12' W 123°23'0 0.0
2018-Mar-16 08:00N 46°12' W 123°23'0 0.0
2018-Mar-16 07:27N 46°12' W 123°23'0 0.0
2018-Mar-16 07:00N 46°12' W 123°23'0 0.0
2018-Mar-16 06:30N 46°12' W 123°23'0 0.0
2018-Mar-16 06:00N 46°12' W 123°23'0 0.0
2018-Mar-16 05:30N 46°12' W 123°23'0 0.0
2018-Mar-16 05:00N 46°12' W 123°23'0 0.0
2018-Mar-16 04:27N 46°12' W 123°23'0 0.0
2018-Mar-16 04:00N 46°12' W 123°23'0 0.0
2018-Mar-16 03:22N 46°12' W 123°23'0 0.0
2018-Mar-16 02:56N 46°12' W 123°23'0 0.0
2018-Mar-16 02:29N 46°12' W 123°23'0 0.0
2018-Mar-16 01:59N 46°12' W 123°23'0 0.0
2018-Mar-16 01:29N 46°12' W 123°23'0 0.0
2018-Mar-16 01:00N 46°12' W 123°23'0 0.0
2018-Mar-16 00:20N 46°12' W 123°23'0 0.0
2018-Mar-15 23:58N 46°12' W 123°23'0 0.0
2018-Mar-15 23:27N 46°12' W 123°23'0 0.0
2018-Mar-15 23:00N 46°12' W 123°23'0 0.0
2018-Mar-15 22:25N 46°12' W 123°23'0 0.0
2018-Mar-15 21:58N 46°12' W 123°23'0 0.0
2018-Mar-15 21:28N 46°12' W 123°23'0 0.0
2018-Mar-15 20:58N 46°12' W 123°23'0 0.0
2018-Mar-15 20:29N 46°12' W 123°23'0 0.0
2018-Mar-15 19:59N 46°12' W 123°23'0 0.0
2018-Mar-15 19:29N 46°12' W 123°23'0 0.0
2018-Mar-15 18:59N 46°12' W 123°23'0 0.0
2018-Mar-15 18:29N 46°12' W 123°23'0 0.0
2018-Mar-15 18:00N 46°12' W 123°23'0 0.0
2018-Mar-15 17:30N 46°12' W 123°23'0 0.0
2018-Mar-15 17:00N 46°12' W 123°23'0 0.0
2018-Mar-15 16:30N 46°12' W 123°23'0 0.0
2018-Mar-15 15:58N 46°12' W 123°23'0 0.0
2018-Mar-15 15:26N 46°12' W 123°23'0 0.0
2018-Mar-15 14:59N 46°12' W 123°23'0 0.0
2018-Mar-15 14:26N 46°12' W 123°23'0 0.0
2018-Mar-15 13:59N 46°12' W 123°23'0 0.0
2018-Mar-15 13:29N 46°12' W 123°23'0 0.0
2018-Mar-15 12:58N 46°12' W 123°23'0 0.0
2018-Mar-15 12:28N 46°12' W 123°23'0 0.0
2018-Mar-15 11:58N 46°12' W 123°23'0 0.0
2018-Mar-15 11:25N 46°12' W 123°23'0 0.0
2018-Mar-15 10:59N 46°12' W 123°23'0 0.0
2018-Mar-15 10:28N 46°12' W 123°23'0 0.0
2018-Mar-15 09:55N 46°12' W 123°23'0 0.0
2018-Mar-15 09:27N 46°12' W 123°23'0 0.0
2018-Mar-15 09:00N 46°12' W 123°23'0 0.0
2018-Mar-15 08:13N 46°12' W 123°23'0 0.0
2018-Mar-15 07:55N 46°12' W 123°23'0 0.0
2018-Mar-15 07:29N 46°12' W 123°23'0 0.0
2018-Mar-15 06:59N 46°12' W 123°23'0 0.0
2018-Mar-15 06:28N 46°12' W 123°23'0 0.0
2018-Mar-15 05:59N 46°12' W 123°23'0 0.0
2018-Mar-15 05:29N 46°12' W 123°23'0 0.0
2018-Mar-15 04:57N 46°12' W 123°23'0 0.0
2018-Mar-15 04:29N 46°12' W 123°23'0 0.0
2018-Mar-15 03:59N 46°12' W 123°23'0 0.0
2018-Mar-15 03:29N 46°12' W 123°23'0 0.0
2018-Mar-15 02:58N 46°12' W 123°23'0 0.0
2018-Mar-15 02:28N 46°12' W 123°23'0 0.0
2018-Mar-15 01:55N 46°12' W 123°23'0 0.0
2018-Mar-15 01:29N 46°12' W 123°23'0 0.0
2018-Mar-15 00:58N 46°12' W 123°23'0 0.0
2018-Mar-15 00:29N 46°12' W 123°23'0 0.0
2018-Mar-14 23:59N 46°12' W 123°23'0 0.0
2018-Mar-14 23:29N 46°12' W 123°23'0 0.0
2018-Mar-14 22:58N 46°12' W 123°23'0 0.0
2018-Mar-14 22:28N 46°12' W 123°23'0 0.0
2018-Mar-14 21:59N 46°12' W 123°23'0 0.0
2018-Mar-14 21:29N 46°12' W 123°23'0 0.0
2018-Mar-14 20:59N 46°12' W 123°23'0 0.0
2018-Mar-14 20:29N 46°12' W 123°23'0 0.0
2018-Mar-14 19:59N 46°12' W 123°23'0 0.0
2018-Mar-14 19:29N 46°12' W 123°23'0 0.0
2018-Mar-14 18:56N 46°12' W 123°23'0 0.0
2018-Mar-14 18:29N 46°12' W 123°23'0 0.0
2018-Mar-14 17:59N 46°12' W 123°23'0 0.0
2018-Mar-14 17:29N 46°12' W 123°23'0 0.0
2018-Mar-14 16:56N 46°12' W 123°23'0 0.0
2018-Mar-14 16:30N 46°12' W 123°23'0 0.0
2018-Mar-14 15:54N 46°12' W 123°23'0 0.0
2018-Mar-14 15:29N 46°12' W 123°23'0 0.0
2018-Mar-14 14:56N 46°12' W 123°23'0 0.0
2018-Mar-14 14:29N 46°12' W 123°23'0 0.0
2018-Mar-14 13:59N 46°12' W 123°23'0 0.0
2018-Mar-14 13:29N 46°12' W 123°23'0 0.0
2018-Mar-14 12:58N 46°12' W 123°23'0 0.0
2018-Mar-14 12:30N 46°12' W 123°23'0 0.0
2018-Mar-14 12:00N 46°12' W 123°23'0 0.0
2018-Mar-14 11:29N 46°12' W 123°23'0 0.0
2018-Mar-14 10:59N 46°12' W 123°23'0 0.0
2018-Mar-14 10:29N 46°12' W 123°23'0 0.0
2018-Mar-14 09:56N 46°12' W 123°23'0 0.0
2018-Mar-14 09:29N 46°12' W 123°23'0 0.0
2018-Mar-14 08:56N 46°12' W 123°23'0 0.0
2018-Mar-14 08:29N 46°12' W 123°23'0 0.0
2018-Mar-14 08:00N 46°12' W 123°23'0 0.0
2018-Mar-14 07:30N 46°12' W 123°23'0 0.0
2018-Mar-14 07:00N 46°12' W 123°23'0 0.0
2018-Mar-14 06:29N 46°12' W 123°23'0 0.0
2018-Mar-14 05:59N 46°12' W 123°23'0 0.0
2018-Mar-14 05:28N 46°12' W 123°23'0 0.0
2018-Mar-14 04:55N 46°12' W 123°23'0 0.0
2018-Mar-14 04:30N 46°12' W 123°23'0 0.0
2018-Mar-14 03:58N 46°12' W 123°23'0 0.0
2018-Mar-14 03:30N 46°12' W 123°23'0 0.0
2018-Mar-14 02:53N 46°12' W 123°23'0 0.0
2018-Mar-14 02:29N 46°12' W 123°23'0 0.0
2018-Mar-14 01:59N 46°12' W 123°23'0 0.0
2018-Mar-14 01:11N 46°12' W 123°23'0 0.0
2018-Mar-14 00:59N 46°12' W 123°23'0 0.0
2018-Mar-14 00:25N 46°12' W 123°23'0 0.0
2018-Mar-13 23:57N 46°12' W 123°23'0 0.0
2018-Mar-13 23:30N 46°12' W 123°23'0 0.0
2018-Mar-13 22:57N 46°12' W 123°23'0 0.0
2018-Mar-13 22:30N 46°12' W 123°23'0 0.0
2018-Mar-13 22:00N 46°12' W 123°23'0 0.0
2018-Mar-13 21:30N 46°12' W 123°23'0 0.0
2018-Mar-13 20:54N 46°12' W 123°23'0 0.0
2018-Mar-13 20:30N 46°12' W 123°23'0 0.0
2018-Mar-13 19:53N 46°12' W 123°23'0 0.0
2018-Mar-13 19:22N 46°12' W 123°23'0 0.0
2018-Mar-13 19:00N 46°12' W 123°23'0 0.0
2018-Mar-13 18:27N 46°12' W 123°23'0 0.0
2018-Mar-13 17:54N 46°12' W 123°23'0 0.0
2018-Mar-13 17:30N 46°12' W 123°23'0 0.0
2018-Mar-13 17:00N 46°12' W 123°23'0 0.0
2018-Mar-13 16:25N 46°12' W 123°23'0 0.0
2018-Mar-13 15:58N 46°12' W 123°23'0 0.0
2018-Mar-13 15:30N 46°12' W 123°23'0 0.0
2018-Mar-13 15:00N 46°12' W 123°23'0 0.0
2018-Mar-13 14:28N 46°12' W 123°23'0 0.0
2018-Mar-13 13:58N 46°12' W 123°23'0 0.0
2018-Mar-13 13:28N 46°12' W 123°23'0 0.0
2018-Mar-13 12:57N 46°12' W 123°23'0 0.0
2018-Mar-13 12:28N 46°12' W 123°23'0 0.0
2018-Mar-13 11:57N 46°12' W 123°23'0 0.0
2018-Mar-13 11:30N 46°12' W 123°23'0 0.0
2018-Mar-13 10:58N 46°12' W 123°23'0 0.0
2018-Mar-13 10:29N 46°12' W 123°23'0 0.0
2018-Mar-13 09:59N 46°12' W 123°23'0 0.0
2018-Mar-13 09:29N 46°12' W 123°23'0 0.0
2018-Mar-13 08:58N 46°12' W 123°23'0 0.0
2018-Mar-13 08:29N 46°12' W 123°23'0 0.0
2018-Mar-13 07:59N 46°12' W 123°23'0 0.0
2018-Mar-13 07:29N 46°12' W 123°23'0 0.0
2018-Mar-13 06:58N 46°12' W 123°23'0 0.0
2018-Mar-13 06:30N 46°12' W 123°23'0 0.0
2018-Mar-13 06:00N 46°12' W 123°23'0 0.0
2018-Mar-13 05:23N 46°12' W 123°23'0 0.0
2018-Mar-13 04:59N 46°12' W 123°23'0 0.0
2018-Mar-13 04:29N 46°12' W 123°23'0 0.0
2018-Mar-13 03:58N 46°12' W 123°23'0 0.0
2018-Mar-13 03:28N 46°12' W 123°23'0 0.0
2018-Mar-13 02:59N 46°12' W 123°23'0 0.0
2018-Mar-13 02:22N 46°12' W 123°23'0 0.0
2018-Mar-13 01:59N 46°12' W 123°23'0 0.0
2018-Mar-13 01:28N 46°12' W 123°23'0 0.0
2018-Mar-13 00:58N 46°12' W 123°23'0 0.0
2018-Mar-13 00:11N 46°12' W 123°23'0 0.0
2018-Mar-12 23:56N 46°12' W 123°23'0 0.0
2018-Mar-12 23:30N 46°12' W 123°23'0 0.0
2018-Mar-12 22:42N 46°12' W 123°23'0 0.0
2018-Mar-12 22:27N 46°12' W 123°23'0 0.0
2018-Mar-12 21:58N 46°12' W 123°23'0 0.0
2018-Mar-12 21:25N 46°12' W 123°23'0 0.0
2018-Mar-12 20:58N 46°12' W 123°23'0 0.0
2018-Mar-12 20:28N 46°12' W 123°23'0 0.0
2018-Mar-12 20:00N 46°12' W 123°23'0 0.0
2018-Mar-12 19:28N 46°12' W 123°23'0 0.0
2018-Mar-12 18:58N 46°12' W 123°23'0 0.0
2018-Mar-12 18:28N 46°12' W 123°23'0 0.0
2018-Mar-12 17:57N 46°12' W 123°23'0 0.0
2018-Mar-12 17:22N 46°12' W 123°23'0 0.0
2018-Mar-12 17:00N 46°12' W 123°23'2 3.2
2018-Mar-12 16:30N 46°12' W 123°25'611.4
2018-Mar-12 16:00N 46°09' W 123°19'714.5
2018-Mar-12 15:30N 46°11' W 123°10'714.9
2018-Mar-12 15:01N 46°08' W 123°00'3 5.2
2018-Mar-12 14:31N 46°06' W 122°58'0 0.0
2018-Mar-12 14:01N 46°06' W 122°58'0 0.0
2018-Mar-12 13:24N 46°06' W 122°58'0 1.2
2018-Mar-12 13:00N 46°06' W 122°58'2 4.8
2018-Mar-12 12:30N 46°08' W 123°00'2 4.9
2018-Mar-12 12:01N 46°09' W 123°03'2 4.9
2018-Mar-12 11:31N 46°11' W 123°06'2 4.8
2018-Mar-12 11:01N 46°11' W 123°10'2 4.9
2018-Mar-12 10:31N 46°10' W 123°13'2 4.8
2018-Mar-12 10:00N 46°09' W 123°16'2 4.8
2018-Mar-12 09:30N 46°09' W 123°19'3 5.1
2018-Mar-12 09:00N 46°09' W 123°23'3 5.1
2018-Mar-12 08:31N 46°11' W 123°25'3 5.6
2018-Mar-12 08:01N 46°14' W 123°26'3 5.9
2018-Mar-12 07:31N 46°16' W 123°28'3 6.0
2018-Mar-12 07:00N 46°16' W 123°32'3 6.5
2018-Mar-12 06:31N 46°15' W 123°37'3 6.2
2018-Mar-12 06:01N 46°15' W 123°41'3 6.0
2018-Mar-12 05:31N 46°13' W 123°45'4 6.8
2018-Mar-12 04:55N 46°12' W 123°50'3 6.3
2018-Mar-12 04:31N 46°11' W 123°54'3 6.9
2018-Mar-12 04:00N 46°13' W 123°58'3 6.9
2018-Mar-12 03:30N 46°15' W 124°02'4 7.5
2018-Mar-12 03:01N 46°14' W 124°07'3 6.7
2018-Mar-12 02:31N 46°12' W 124°11'3 5.7
2018-Mar-12 02:01N 46°10' W 124°14'3 7.0
2018-Mar-12 01:30N 46°07' W 124°17'3 6.9
2018-Mar-12 01:00N 46°05' W 124°20'4 7.1
2018-Mar-12 00:31N 46°01' W 124°19'4 7.3
2018-Mar-12 00:00N 45°58' W 124°18'4 7.3
2018-Mar-11 23:30N 45°54' W 124°17'4 7.2
2018-Mar-11 23:00N 45°50' W 124°16'4 7.2
2018-Mar-11 22:31N 45°47' W 124°15'4 7.2
2018-Mar-11 22:00N 45°43' W 124°15'4 7.0
2018-Mar-11 21:31N 45°40' W 124°14'5 7.2
2018-Mar-11 20:48N 45°35' W 124°13'2 7.5
2018-Mar-11 20:30N 45°32' W 124°14'4 7.5
2018-Mar-11 20:00N 45°29' W 124°14'5 7.2
2018-Mar-11 19:16N 45°24' W 124°18'2 7.2
2018-Mar-11 19:00N 45°23' W 124°20'4 7.2
2018-Mar-11 18:30N 45°19' W 124°22'3 6.9
2018-Mar-11 18:01N 45°16' W 124°23'3 7.0
2018-Mar-11 17:31N 45°13' W 124°24'3 7.0
2018-Mar-11 17:00N 45°09' W 124°25'5 6.7
2018-Mar-11 16:19N 45°05' W 124°26'2 6.5
2018-Mar-11 16:00N 45°03' W 124°27'6 6.5
2018-Mar-11 15:04N 44°57' W 124°28'  
Track history (hours):
 
Tides and Currents Weather Stations Pressure Air Temp Water Temp Dewpoint Dewpoint Depression Visibility Wind Speed Wind Dir Waves Ship Positions

Edward Brusco

Owner: Brusco Tug & Barge, Inc., Longview, WA. More information available from US FCC via Universal Licensing System and Coast Guard Vessel Documentation Center.

Last reported at 2018-Mar-21 03:01 UTC. Time now 2018-Apr-23 03:47 UTC.
Position N 46°12' W 123°23'.
Warning: this ship's position is 33 days out of date.

Length 37 m; draft 4.1 m.

Type: Tug. MMSI: 367002170.

Date/timePositionNaut miles runAvg speedWind from/ knotsBaromVisibWave heightAir tempDewpointWater temp
2018-Mar-21 03:01N 46°12' W 123°23'0 0.4
2018-Mar-21 03:01N 46°12' W 123°23'2 4.2
2018-Mar-21 02:31N 46°10' W 123°25'713.0
2018-Mar-21 02:00N 46°09' W 123°16'713.4
2018-Mar-21 01:30N 46°11' W 123°07'713.9
2018-Mar-21 01:00N 46°07' W 122°59'1 2.2
2018-Mar-21 00:30N 46°06' W 122°58'1 2.4
2018-Mar-21 00:00N 46°07' W 122°59'4 7.5
2018-Mar-20 23:30N 46°09' W 123°03'4 7.6
2018-Mar-20 23:00N 46°11' W 123°08'4 7.3
2018-Mar-20 22:30N 46°10' W 123°13'4 7.4
2018-Mar-20 22:01N 46°09' W 123°18'4 7.4
2018-Mar-20 21:30N 46°09' W 123°23'3 6.9
2018-Mar-20 21:00N 46°12' W 123°26'4 7.0
2018-Mar-20 20:30N 46°15' W 123°27'3 6.5
2018-Mar-20 20:00N 46°16' W 123°31'4 7.4
2018-Mar-20 19:30N 46°15' W 123°37'4 7.2
2018-Mar-20 19:00N 46°15' W 123°42'4 7.4
2018-Mar-20 18:30N 46°13' W 123°47'6 7.1
2018-Mar-20 17:40N 46°12' W 123°55'1 6.9
2018-Mar-20 17:30N 46°12' W 123°56'3 6.2
2018-Mar-20 17:00N 46°14' W 123°59'2 4.0
2018-Mar-20 16:31N 46°15' W 124°02'2 4.7
2018-Mar-20 16:00N 46°15' W 124°05'3 5.7
2018-Mar-20 15:30N 46°13' W 124°08'3 6.8
2018-Mar-20 15:01N 46°13' W 124°13'4 7.9
2018-Mar-20 14:30N 46°15' W 124°18'4 8.3
2018-Mar-20 14:00N 46°19' W 124°20'7 8.2
2018-Mar-20 13:08N 46°26' W 124°21'1 8.3
2018-Mar-20 13:00N 46°27' W 124°22'4 8.1
2018-Mar-20 12:30N 46°31' W 124°23'4 8.2
2018-Mar-20 12:00N 46°35' W 124°24'4 8.1
2018-Mar-20 11:30N 46°39' W 124°25'4 8.1
2018-Mar-20 11:00N 46°43' W 124°26'4 7.7
2018-Mar-20 10:31N 46°46' W 124°24'4 8.3
2018-Mar-20 10:00N 46°49' W 124°20'4 8.6
2018-Mar-20 09:30N 46°52' W 124°15'4 8.1
2018-Mar-20 09:00N 46°55' W 124°11'2 0.1
2018-Mar-19 00:21N 46°55' W 124°08'2 6.2
2018-Mar-19 00:00N 46°55' W 124°11'4 8.9
2018-Mar-18 23:30N 46°52' W 124°15'5 9.9
2018-Mar-18 23:00N 46°48' W 124°21'5 9.8
2018-Mar-18 22:31N 46°45' W 124°26'510.0
2018-Mar-18 22:00N 46°40' W 124°25'510.4
2018-Mar-18 21:30N 46°35' W 124°24'510.4
2018-Mar-18 21:00N 46°30' W 124°23'510.6
2018-Mar-18 20:29N 46°25' W 124°21'510.4
2018-Mar-18 20:00N 46°20' W 124°20'510.2
2018-Mar-18 19:30N 46°15' W 124°18'5 8.0
2018-Mar-18 18:57N 46°13' W 124°12'3 7.6
2018-Mar-18 18:30N 46°14' W 124°07'3 6.3
2018-Mar-18 18:00N 46°15' W 124°04'4 7.1
2018-Mar-18 17:30N 46°14' W 123°59'5 9.9
2018-Mar-18 17:00N 46°11' W 123°53'510.9
2018-Mar-18 16:30N 46°13' W 123°45'611.8
2018-Mar-18 16:00N 46°16' W 123°38'612.1
2018-Mar-18 15:30N 46°16' W 123°29'611.2
2018-Mar-18 15:01N 46°11' W 123°26'611.3
2018-Mar-18 14:30N 46°09' W 123°19'611.9
2018-Mar-18 14:00N 46°11' W 123°11'510.8
2018-Mar-18 13:30N 46°09' W 123°03'510.9
2018-Mar-18 13:00N 46°06' W 122°57'0 1.0
2018-Mar-18 12:31N 46°06' W 122°57'1 1.8
2018-Mar-18 12:01N 46°06' W 122°58'3 7.0
2018-Mar-18 11:30N 46°08' W 123°02'4 7.6
2018-Mar-18 11:00N 46°11' W 123°06'4 7.3
2018-Mar-18 10:30N 46°11' W 123°11'4 8.0
2018-Mar-18 10:00N 46°09' W 123°17'4 8.2
2018-Mar-18 09:31N 46°09' W 123°22'4 7.3
2018-Mar-18 09:00N 46°12' W 123°26'2 3.5
2018-Mar-18 08:30N 46°12' W 123°23'0 0.0
2018-Mar-18 06:53N 46°12' W 123°23'0 0.0
2018-Mar-18 06:29N 46°12' W 123°23'0 0.0
2018-Mar-18 05:58N 46°12' W 123°23'0 0.0
2018-Mar-18 05:28N 46°12' W 123°23'0 0.0
2018-Mar-18 04:58N 46°12' W 123°23'0 0.0
2018-Mar-18 04:22N 46°12' W 123°23'0 0.0
2018-Mar-18 03:57N 46°12' W 123°23'0 0.0
2018-Mar-18 03:30N 46°12' W 123°23'0 0.0
2018-Mar-18 03:00N 46°12' W 123°23'0 0.0
2018-Mar-18 02:27N 46°12' W 123°23'0 0.0
2018-Mar-18 01:58N 46°12' W 123°23'0 0.0
2018-Mar-18 01:25N 46°12' W 123°23'0 0.0
2018-Mar-18 00:55N 46°12' W 123°23'0 0.0
2018-Mar-18 00:30N 46°12' W 123°23'0 0.0
2018-Mar-18 00:00N 46°12' W 123°23'0 0.0
2018-Mar-17 23:30N 46°12' W 123°23'0 0.0
2018-Mar-17 22:58N 46°12' W 123°23'0 0.0
2018-Mar-17 22:30N 46°12' W 123°23'0 0.0
2018-Mar-17 21:53N 46°12' W 123°23'0 0.0
2018-Mar-17 21:26N 46°12' W 123°23'0 0.0
2018-Mar-17 20:57N 46°12' W 123°23'0 0.0
2018-Mar-17 20:28N 46°12' W 123°23'0 0.0
2018-Mar-17 19:55N 46°12' W 123°23'0 0.0
2018-Mar-17 19:28N 46°12' W 123°23'0 0.0
2018-Mar-17 18:58N 46°12' W 123°23'0 0.0
2018-Mar-17 18:28N 46°12' W 123°23'0 0.0
2018-Mar-17 17:59N 46°12' W 123°23'0 0.0
2018-Mar-17 17:29N 46°12' W 123°23'0 0.0
2018-Mar-17 16:59N 46°12' W 123°23'0 0.0
2018-Mar-17 16:25N 46°12' W 123°23'0 0.0
2018-Mar-17 15:58N 46°12' W 123°23'0 0.0
2018-Mar-17 15:28N 46°12' W 123°23'0 0.0
2018-Mar-17 15:00N 46°12' W 123°23'0 0.0
2018-Mar-17 14:30N 46°12' W 123°23'0 0.0
2018-Mar-17 14:00N 46°12' W 123°23'0 0.0
2018-Mar-17 13:28N 46°12' W 123°23'0 0.0
2018-Mar-17 12:58N 46°12' W 123°23'0 0.0
2018-Mar-17 12:28N 46°12' W 123°23'0 0.0
2018-Mar-17 12:00N 46°12' W 123°23'0 0.0
2018-Mar-17 11:29N 46°12' W 123°23'0 0.0
2018-Mar-17 10:59N 46°12' W 123°23'0 0.0
2018-Mar-17 10:27N 46°12' W 123°23'0 0.0
2018-Mar-17 10:00N 46°12' W 123°23'0 0.0
2018-Mar-17 09:27N 46°12' W 123°23'0 0.0
2018-Mar-17 09:00N 46°12' W 123°23'0 0.0
2018-Mar-17 08:28N 46°12' W 123°23'0 0.0
2018-Mar-17 07:58N 46°12' W 123°23'0 0.0
2018-Mar-17 07:28N 46°12' W 123°23'0 0.0
2018-Mar-17 06:55N 46°12' W 123°23'0 0.0
2018-Mar-17 06:30N 46°12' W 123°23'0 0.0
2018-Mar-17 06:00N 46°12' W 123°23'0 0.0
2018-Mar-17 05:30N 46°12' W 123°23'0 0.0
2018-Mar-17 04:46N 46°12' W 123°23'0 0.0
2018-Mar-17 04:25N 46°12' W 123°23'0 0.0
2018-Mar-17 03:58N 46°12' W 123°23'0 0.0
2018-Mar-17 03:26N 46°12' W 123°23'0 0.0
2018-Mar-17 03:00N 46°12' W 123°23'0 0.0
2018-Mar-17 02:28N 46°12' W 123°23'0 0.0
2018-Mar-17 01:58N 46°12' W 123°23'0 0.0
2018-Mar-17 01:30N 46°12' W 123°23'0 0.0
2018-Mar-17 01:00N 46°12' W 123°23'0 0.0
2018-Mar-17 00:30N 46°12' W 123°23'0 0.0
2018-Mar-16 23:59N 46°12' W 123°23'0 0.0
2018-Mar-16 23:29N 46°12' W 123°23'0 0.0
2018-Mar-16 23:00N 46°12' W 123°23'0 0.0
2018-Mar-16 22:30N 46°12' W 123°23'0 0.0
2018-Mar-16 22:00N 46°12' W 123°23'0 0.0
2018-Mar-16 21:28N 46°12' W 123°23'0 0.0
2018-Mar-16 20:57N 46°12' W 123°23'0 0.0
2018-Mar-16 20:24N 46°12' W 123°23'0 0.0
2018-Mar-16 20:00N 46°12' W 123°23'0 0.0
2018-Mar-16 19:29N 46°12' W 123°23'0 0.0
2018-Mar-16 18:58N 46°12' W 123°23'0 0.0
2018-Mar-16 18:22N 46°12' W 123°23'0 0.0
2018-Mar-16 17:58N 46°12' W 123°23'0 0.0
2018-Mar-16 17:25N 46°12' W 123°23'0 0.0
2018-Mar-16 16:55N 46°12' W 123°23'0 0.0
2018-Mar-16 16:28N 46°12' W 123°23'0 0.0
2018-Mar-16 15:42N 46°12' W 123°23'0 0.0
2018-Mar-16 15:30N 46°12' W 123°23'0 0.0
2018-Mar-16 15:00N 46°12' W 123°23'0 0.0
2018-Mar-16 14:21N 46°12' W 123°23'0 0.0
2018-Mar-16 14:00N 46°12' W 123°23'0 0.0
2018-Mar-16 13:30N 46°12' W 123°23'0 0.0
2018-Mar-16 13:00N 46°12' W 123°23'0 0.0
2018-Mar-16 12:30N 46°12' W 123°23'0 0.0
2018-Mar-16 12:00N 46°12' W 123°23'0 0.0
2018-Mar-16 11:24N 46°12' W 123°23'0 0.0
2018-Mar-16 11:00N 46°12' W 123°23'0 0.0
2018-Mar-16 10:30N 46°12' W 123°23'0 0.0
2018-Mar-16 09:55N 46°12' W 123°23'0 0.0
2018-Mar-16 09:30N 46°12' W 123°23'0 0.0
2018-Mar-16 09:00N 46°12' W 123°23'0 0.0
2018-Mar-16 08:30N 46°12' W 123°23'0 0.0
2018-Mar-16 08:00N 46°12' W 123°23'0 0.0
2018-Mar-16 07:27N 46°12' W 123°23'0 0.0
2018-Mar-16 07:00N 46°12' W 123°23'0 0.0
2018-Mar-16 06:30N 46°12' W 123°23'0 0.0
2018-Mar-16 06:00N 46°12' W 123°23'0 0.0
2018-Mar-16 05:30N 46°12' W 123°23'0 0.0
2018-Mar-16 05:00N 46°12' W 123°23'0 0.0
2018-Mar-16 04:27N 46°12' W 123°23'0 0.0
2018-Mar-16 04:00N 46°12' W 123°23'0 0.0
2018-Mar-16 03:22N 46°12' W 123°23'0 0.0
2018-Mar-16 02:56N 46°12' W 123°23'0 0.0
2018-Mar-16 02:29N 46°12' W 123°23'0 0.0
2018-Mar-16 01:59N 46°12' W 123°23'0 0.0
2018-Mar-16 01:29N 46°12' W 123°23'0 0.0
2018-Mar-16 01:00N 46°12' W 123°23'0 0.0
2018-Mar-16 00:20N 46°12' W 123°23'0 0.0
2018-Mar-15 23:58N 46°12' W 123°23'0 0.0
2018-Mar-15 23:27N 46°12' W 123°23'0 0.0
2018-Mar-15 23:00N 46°12' W 123°23'0 0.0
2018-Mar-15 22:25N 46°12' W 123°23'0 0.0
2018-Mar-15 21:58N 46°12' W 123°23'0 0.0
2018-Mar-15 21:28N 46°12' W 123°23'0 0.0
2018-Mar-15 20:58N 46°12' W 123°23'0 0.0
2018-Mar-15 20:29N 46°12' W 123°23'0 0.0
2018-Mar-15 19:59N 46°12' W 123°23'0 0.0
2018-Mar-15 19:29N 46°12' W 123°23'0 0.0
2018-Mar-15 18:59N 46°12' W 123°23'0 0.0
2018-Mar-15 18:29N 46°12' W 123°23'0 0.0
2018-Mar-15 18:00N 46°12' W 123°23'0 0.0
2018-Mar-15 17:30N 46°12' W 123°23'0 0.0
2018-Mar-15 17:00N 46°12' W 123°23'0 0.0
2018-Mar-15 16:30N 46°12' W 123°23'0 0.0
2018-Mar-15 15:58N 46°12' W 123°23'0 0.0
2018-Mar-15 15:26N 46°12' W 123°23'0 0.0
2018-Mar-15 14:59N 46°12' W 123°23'0 0.0
2018-Mar-15 14:26N 46°12' W 123°23'0 0.0
2018-Mar-15 13:59N 46°12' W 123°23'0 0.0
2018-Mar-15 13:29N 46°12' W 123°23'0 0.0
2018-Mar-15 12:58N 46°12' W 123°23'0 0.0
2018-Mar-15 12:28N 46°12' W 123°23'0 0.0
2018-Mar-15 11:58N 46°12' W 123°23'0 0.0
2018-Mar-15 11:25N 46°12' W 123°23'0 0.0
2018-Mar-15 10:59N 46°12' W 123°23'0 0.0
2018-Mar-15 10:28N 46°12' W 123°23'0 0.0
2018-Mar-15 09:55N 46°12' W 123°23'0 0.0
2018-Mar-15 09:27N 46°12' W 123°23'0 0.0
2018-Mar-15 09:00N 46°12' W 123°23'0 0.0
2018-Mar-15 08:13N 46°12' W 123°23'0 0.0
2018-Mar-15 07:55N 46°12' W 123°23'0 0.0
2018-Mar-15 07:29N 46°12' W 123°23'0 0.0
2018-Mar-15 06:59N 46°12' W 123°23'0 0.0
2018-Mar-15 06:28N 46°12' W 123°23'0 0.0
2018-Mar-15 05:59N 46°12' W 123°23'0 0.0
2018-Mar-15 05:29N 46°12' W 123°23'0 0.0
2018-Mar-15 04:57N 46°12' W 123°23'0 0.0
2018-Mar-15 04:29N 46°12' W 123°23'0 0.0
2018-Mar-15 03:59N 46°12' W 123°23'0 0.0
2018-Mar-15 03:29N 46°12' W 123°23'0 0.0
2018-Mar-15 02:58N 46°12' W 123°23'0 0.0
2018-Mar-15 02:28N 46°12' W 123°23'0 0.0
2018-Mar-15 01:55N 46°12' W 123°23'0 0.0
2018-Mar-15 01:29N 46°12' W 123°23'0 0.0
2018-Mar-15 00:58N 46°12' W 123°23'0 0.0
2018-Mar-15 00:29N 46°12' W 123°23'0 0.0
2018-Mar-14 23:59N 46°12' W 123°23'0 0.0
2018-Mar-14 23:29N 46°12' W 123°23'0 0.0
2018-Mar-14 22:58N 46°12' W 123°23'0 0.0
2018-Mar-14 22:28N 46°12' W 123°23'0 0.0
2018-Mar-14 21:59N 46°12' W 123°23'0 0.0
2018-Mar-14 21:29N 46°12' W 123°23'0 0.0
2018-Mar-14 20:59N 46°12' W 123°23'0 0.0
2018-Mar-14 20:29N 46°12' W 123°23'0 0.0
2018-Mar-14 19:59N 46°12' W 123°23'0 0.0
2018-Mar-14 19:29N 46°12' W 123°23'0 0.0
2018-Mar-14 18:56N 46°12' W 123°23'0 0.0
2018-Mar-14 18:29N 46°12' W 123°23'0 0.0
2018-Mar-14 17:59N 46°12' W 123°23'0 0.0
2018-Mar-14 17:29N 46°12' W 123°23'0 0.0
2018-Mar-14 16:56N 46°12' W 123°23'0 0.0
2018-Mar-14 16:30N 46°12' W 123°23'0 0.0
2018-Mar-14 15:54N 46°12' W 123°23'0 0.0
2018-Mar-14 15:29N 46°12' W 123°23'0 0.0
2018-Mar-14 14:56N 46°12' W 123°23'0 0.0
2018-Mar-14 14:29N 46°12' W 123°23'0 0.0
2018-Mar-14 13:59N 46°12' W 123°23'0 0.0
2018-Mar-14 13:29N 46°12' W 123°23'0 0.0
2018-Mar-14 12:58N 46°12' W 123°23'0 0.0
2018-Mar-14 12:30N 46°12' W 123°23'0 0.0
2018-Mar-14 12:00N 46°12' W 123°23'0 0.0
2018-Mar-14 11:29N 46°12' W 123°23'0 0.0
2018-Mar-14 10:59N 46°12' W 123°23'0 0.0
2018-Mar-14 10:29N 46°12' W 123°23'0 0.0
2018-Mar-14 09:56N 46°12' W 123°23'0 0.0
2018-Mar-14 09:29N 46°12' W 123°23'0 0.0
2018-Mar-14 08:56N 46°12' W 123°23'0 0.0
2018-Mar-14 08:29N 46°12' W 123°23'0 0.0
2018-Mar-14 08:00N 46°12' W 123°23'0 0.0
2018-Mar-14 07:30N 46°12' W 123°23'0 0.0
2018-Mar-14 07:00N 46°12' W 123°23'0 0.0
2018-Mar-14 06:29N 46°12' W 123°23'0 0.0
2018-Mar-14 05:59N 46°12' W 123°23'0 0.0
2018-Mar-14 05:28N 46°12' W 123°23'0 0.0
2018-Mar-14 04:55N 46°12' W 123°23'0 0.0
2018-Mar-14 04:30N 46°12' W 123°23'0 0.0
2018-Mar-14 03:58N 46°12' W 123°23'0 0.0
2018-Mar-14 03:30N 46°12' W 123°23'0 0.0
2018-Mar-14 02:53N 46°12' W 123°23'0 0.0
2018-Mar-14 02:29N 46°12' W 123°23'0 0.0
2018-Mar-14 01:59N 46°12' W 123°23'0 0.0
2018-Mar-14 01:11N 46°12' W 123°23'0 0.0
2018-Mar-14 00:59N 46°12' W 123°23'0 0.0
2018-Mar-14 00:25N 46°12' W 123°23'0 0.0
2018-Mar-13 23:57N 46°12' W 123°23'0 0.0
2018-Mar-13 23:30N 46°12' W 123°23'0 0.0
2018-Mar-13 22:57N 46°12' W 123°23'0 0.0
2018-Mar-13 22:30N 46°12' W 123°23'0 0.0
2018-Mar-13 22:00N 46°12' W 123°23'0 0.0
2018-Mar-13 21:30N 46°12' W 123°23'0 0.0
2018-Mar-13 20:54N 46°12' W 123°23'0 0.0
2018-Mar-13 20:30N 46°12' W 123°23'0 0.0
2018-Mar-13 19:53N 46°12' W 123°23'0 0.0
2018-Mar-13 19:22N 46°12' W 123°23'0 0.0
2018-Mar-13 19:00N 46°12' W 123°23'0 0.0
2018-Mar-13 18:27N 46°12' W 123°23'0 0.0
2018-Mar-13 17:54N 46°12' W 123°23'0 0.0
2018-Mar-13 17:30N 46°12' W 123°23'0 0.0
2018-Mar-13 17:00N 46°12' W 123°23'0 0.0
2018-Mar-13 16:25N 46°12' W 123°23'0 0.0
2018-Mar-13 15:58N 46°12' W 123°23'0 0.0
2018-Mar-13 15:30N 46°12' W 123°23'0 0.0
2018-Mar-13 15:00N 46°12' W 123°23'0 0.0
2018-Mar-13 14:28N 46°12' W 123°23'0 0.0
2018-Mar-13 13:58N 46°12' W 123°23'0 0.0
2018-Mar-13 13:28N 46°12' W 123°23'0 0.0
2018-Mar-13 12:57N 46°12' W 123°23'0 0.0
2018-Mar-13 12:28N 46°12' W 123°23'0 0.0
2018-Mar-13 11:57N 46°12' W 123°23'0 0.0
2018-Mar-13 11:30N 46°12' W 123°23'0 0.0
2018-Mar-13 10:58N 46°12' W 123°23'0 0.0
2018-Mar-13 10:29N 46°12' W 123°23'0 0.0
2018-Mar-13 09:59N 46°12' W 123°23'0 0.0
2018-Mar-13 09:29N 46°12' W 123°23'0 0.0
2018-Mar-13 08:58N 46°12' W 123°23'0 0.0
2018-Mar-13 08:29N 46°12' W 123°23'0 0.0
2018-Mar-13 07:59N 46°12' W 123°23'0 0.0
2018-Mar-13 07:29N 46°12' W 123°23'0 0.0
2018-Mar-13 06:58N 46°12' W 123°23'0 0.0
2018-Mar-13 06:30N 46°12' W 123°23'0 0.0
2018-Mar-13 06:00N 46°12' W 123°23'0 0.0
2018-Mar-13 05:23N 46°12' W 123°23'0 0.0
2018-Mar-13 04:59N 46°12' W 123°23'0 0.0
2018-Mar-13 04:29N 46°12' W 123°23'0 0.0
2018-Mar-13 03:58N 46°12' W 123°23'0 0.0
2018-Mar-13 03:28N 46°12' W 123°23'0 0.0
2018-Mar-13 02:59N 46°12' W 123°23'0 0.0
2018-Mar-13 02:22N 46°12' W 123°23'0 0.0
2018-Mar-13 01:59N 46°12' W 123°23'0 0.0
2018-Mar-13 01:28N 46°12' W 123°23'0 0.0
2018-Mar-13 00:58N 46°12' W 123°23'0 0.0
2018-Mar-13 00:11N 46°12' W 123°23'0 0.0
2018-Mar-12 23:56N 46°12' W 123°23'0 0.0
2018-Mar-12 23:30N 46°12' W 123°23'0 0.0
2018-Mar-12 22:42N 46°12' W 123°23'0 0.0
2018-Mar-12 22:27N 46°12' W 123°23'0 0.0
2018-Mar-12 21:58N 46°12' W 123°23'0 0.0
2018-Mar-12 21:25N 46°12' W 123°23'0 0.0
2018-Mar-12 20:58N 46°12' W 123°23'0 0.0
2018-Mar-12 20:28N 46°12' W 123°23'0 0.0
2018-Mar-12 20:00N 46°12' W 123°23'0 0.0
2018-Mar-12 19:28N 46°12' W 123°23'0 0.0
2018-Mar-12 18:58N 46°12' W 123°23'0 0.0
2018-Mar-12 18:28N 46°12' W 123°23'0 0.0
2018-Mar-12 17:57N 46°12' W 123°23'0 0.0
2018-Mar-12 17:22N 46°12' W 123°23'0 0.0
2018-Mar-12 17:00N 46°12' W 123°23'2 3.2
2018-Mar-12 16:30N 46°12' W 123°25'611.4
2018-Mar-12 16:00N 46°09' W 123°19'714.5
2018-Mar-12 15:30N 46°11' W 123°10'714.9
2018-Mar-12 15:01N 46°08' W 123°00'3 5.2
2018-Mar-12 14:31N 46°06' W 122°58'0 0.0
2018-Mar-12 14:01N 46°06' W 122°58'0 0.0
2018-Mar-12 13:24N 46°06' W 122°58'0 1.2
2018-Mar-12 13:00N 46°06' W 122°58'2 4.8
2018-Mar-12 12:30N 46°08' W 123°00'2 4.9
2018-Mar-12 12:01N 46°09' W 123°03'2 4.9
2018-Mar-12 11:31N 46°11' W 123°06'2 4.8
2018-Mar-12 11:01N 46°11' W 123°10'2 4.9
2018-Mar-12 10:31N 46°10' W 123°13'2 4.8
2018-Mar-12 10:00N 46°09' W 123°16'2 4.8
2018-Mar-12 09:30N 46°09' W 123°19'3 5.1
2018-Mar-12 09:00N 46°09' W 123°23'3 5.1
2018-Mar-12 08:31N 46°11' W 123°25'3 5.6
2018-Mar-12 08:01N 46°14' W 123°26'3 5.9
2018-Mar-12 07:31N 46°16' W 123°28'3 6.0
2018-Mar-12 07:00N 46°16' W 123°32'3 6.5
2018-Mar-12 06:31N 46°15' W 123°37'3 6.2
2018-Mar-12 06:01N 46°15' W 123°41'3 6.0
2018-Mar-12 05:31N 46°13' W 123°45'4 6.8
2018-Mar-12 04:55N 46°12' W 123°50'3 6.3
2018-Mar-12 04:31N 46°11' W 123°54'3 6.9
2018-Mar-12 04:00N 46°13' W 123°58'3 6.9
2018-Mar-12 03:30N 46°15' W 124°02'4 7.5
2018-Mar-12 03:01N 46°14' W 124°07'3 6.7
2018-Mar-12 02:31N 46°12' W 124°11'3 5.7
2018-Mar-12 02:01N 46°10' W 124°14'3 7.0
2018-Mar-12 01:30N 46°07' W 124°17'3 6.9
2018-Mar-12 01:00N 46°05' W 124°20'4 7.1
2018-Mar-12 00:31N 46°01' W 124°19'4 7.3
2018-Mar-12 00:00N 45°58' W 124°18'4 7.3
2018-Mar-11 23:30N 45°54' W 124°17'4 7.2
2018-Mar-11 23:00N 45°50' W 124°16'4 7.2
2018-Mar-11 22:31N 45°47' W 124°15'4 7.2
2018-Mar-11 22:00N 45°43' W 124°15'4 7.0
2018-Mar-11 21:31N 45°40' W 124°14'5 7.2
2018-Mar-11 20:48N 45°35' W 124°13'2 7.5
2018-Mar-11 20:30N 45°32' W 124°14'4 7.5
2018-Mar-11 20:00N 45°29' W 124°14'5 7.2
2018-Mar-11 19:16N 45°24' W 124°18'2 7.2
2018-Mar-11 19:00N 45°23' W 124°20'4 7.2
2018-Mar-11 18:30N 45°19' W 124°22'3 6.9
2018-Mar-11 18:01N 45°16' W 124°23'3 7.0
2018-Mar-11 17:31N 45°13' W 124°24'3 7.0
2018-Mar-11 17:00N 45°09' W 124°25'5 6.7
2018-Mar-11 16:19N 45°05' W 124°26'2 6.5
2018-Mar-11 16:00N 45°03' W 124°27'6 6.5
2018-Mar-11 15:04N 44°57' W 124°28'  

Dump ship's entire track history